RYR9WQ EGGP-EPKK
Flight info
| Callsign | RYR9WQ |
|---|---|
| Flight time | 2h 11m |
| Altitude | 37000 |
| Route | BARTN L975 DESIG L603 LAMSO DCT SAS L986 POVEL DCT BOLBO DCT LASIS T714 MOFKE |
| Aircraft | B38M/M-SDE1FGHILORVWXY/HB1 |
Departure
| Time | 2026-05-04 19:37 |
|---|---|
| Airport | Liverpool John Lennon Airport (EGGP) |
Arrival
| Time | 2026-05-04 21:49 |
|---|---|
| Airport | Kraków John Paul II International Airport (EPKK) |
| Time | Latitude | Longitude | Altitude | Speed | Heading |
|---|---|---|---|---|---|
| 2026-05-04 19:06 | 53.33657 | -2.85586 | 92 ft | 0 kts | 356° |
| 2026-05-04 19:28 | 53.33656 | -2.85586 | 88 ft | 1 kts | 356° |
| 2026-05-04 19:28 | 53.33633 | -2.85580 | 88 ft | 3 kts | 355° |
| 2026-05-04 19:28 | 53.33615 | -2.85583 | 88 ft | 4 kts | 48° |
| 2026-05-04 19:28 | 53.33609 | -2.85618 | 90 ft | 3 kts | 86° |
| 2026-05-04 19:29 | 53.33607 | -2.85657 | 88 ft | 1 kts | 86° |
| 2026-05-04 19:29 | 53.33607 | -2.85658 | 88 ft | 0 kts | 86° |
| 2026-05-04 19:32 | 53.33607 | -2.85656 | 88 ft | 1 kts | 86° |
| 2026-05-04 19:32 | 53.33608 | -2.85634 | 91 ft | 4 kts | 86° |
| 2026-05-04 19:32 | 53.33611 | -2.85565 | 88 ft | 7 kts | 90° |
| 2026-05-04 19:33 | 53.33573 | -2.85513 | 91 ft | 9 kts | 168° |
| 2026-05-04 19:33 | 53.33513 | -2.85476 | 90 ft | 10 kts | 118° |
| 2026-05-04 19:33 | 53.33512 | -2.85342 | 88 ft | 13 kts | 86° |
| 2026-05-04 19:33 | 53.33520 | -2.85171 | 87 ft | 18 kts | 85° |
| 2026-05-04 19:34 | 53.33531 | -2.84939 | 87 ft | 20 kts | 85° |
| 2026-05-04 19:34 | 53.33542 | -2.84702 | 83 ft | 20 kts | 86° |
| 2026-05-04 19:34 | 53.33553 | -2.84465 | 80 ft | 18 kts | 86° |
| 2026-05-04 19:34 | 53.33563 | -2.84238 | 81 ft | 20 kts | 86° |
| 2026-05-04 19:35 | 53.33574 | -2.84001 | 82 ft | 18 kts | 85° |
| 2026-05-04 19:35 | 53.33584 | -2.83781 | 83 ft | 19 kts | 85° |
| 2026-05-04 19:35 | 53.33593 | -2.83576 | 88 ft | 17 kts | 85° |
| 2026-05-04 19:35 | 53.33598 | -2.83413 | 93 ft | 9 kts | 96° |
| 2026-05-04 19:36 | 53.33565 | -2.83323 | 94 ft | 10 kts | 145° |
| 2026-05-04 19:36 | 53.33529 | -2.83301 | 90 ft | 7 kts | 170° |
| 2026-05-04 19:36 | 53.33466 | -2.83291 | 85 ft | 6 kts | 178° |
| 2026-05-04 19:36 | 53.33445 | -2.83316 | 88 ft | 6 kts | 240° |
| 2026-05-04 19:37 | 53.33436 | -2.83418 | 85 ft | 14 kts | 265° |
| 2026-05-04 19:37 | 53.33406 | -2.84073 | 80 ft | 100 kts | 265° |
| 2026-05-04 19:37 | 53.33342 | -2.85658 | 147 ft | 164 kts | 271° |
| 2026-05-04 19:37 | 53.33276 | -2.87617 | 1025 ft | 171 kts | 270° |
| 2026-05-04 19:38 | 53.33163 | -2.89654 | 1955 ft | 184 kts | 268° |
| 2026-05-04 19:38 | 53.33110 | -2.91974 | 2435 ft | 212 kts | 279° |
| 2026-05-04 19:38 | 53.33708 | -2.94295 | 3115 ft | 228 kts | 314° |
| 2026-05-04 19:38 | 53.35102 | -2.95702 | 3398 ft | 244 kts | 345° |
| 2026-05-04 19:39 | 53.36784 | -2.95539 | 3579 ft | 246 kts | 22° |
| 2026-05-04 19:39 | 53.38165 | -2.94139 | 4282 ft | 225 kts | 34° |
| 2026-05-04 19:39 | 53.39447 | -2.92620 | 4525 ft | 236 kts | 33° |
| 2026-05-04 19:39 | 53.40761 | -2.90739 | 5189 ft | 256 kts | 46° |
| 2026-05-04 19:40 | 53.41801 | -2.88250 | 6120 ft | 269 kts | 64° |
| 2026-05-04 19:40 | 53.42328 | -2.85180 | 6974 ft | 281 kts | 78° |
| 2026-05-04 19:40 | 53.42719 | -2.81929 | 7920 ft | 287 kts | 77° |
| 2026-05-04 19:40 | 53.43107 | -2.78625 | 8893 ft | 291 kts | 78° |
| 2026-05-04 19:41 | 53.43493 | -2.75263 | 9862 ft | 296 kts | 78° |
| 2026-05-04 19:41 | 53.43881 | -2.71819 | 10611 ft | 308 kts | 79° |
| 2026-05-04 19:41 | 53.44286 | -2.68173 | 11083 ft | 328 kts | 79° |
| 2026-05-04 19:41 | 53.44714 | -2.64294 | 11499 ft | 348 kts | 79° |
| 2026-05-04 19:42 | 53.45162 | -2.60224 | 12050 ft | 362 kts | 79° |
| 2026-05-04 19:42 | 53.45622 | -2.56026 | 12799 ft | 367 kts | 79° |
| 2026-05-04 19:42 | 53.46083 | -2.51801 | 13667 ft | 371 kts | 79° |
| 2026-05-04 19:42 | 53.46551 | -2.47503 | 14335 ft | 376 kts | 80° |
| 2026-05-04 19:43 | 53.47020 | -2.43178 | 15102 ft | 378 kts | 80° |
| 2026-05-04 19:43 | 53.47493 | -2.38800 | 15758 ft | 384 kts | 80° |
| 2026-05-04 19:43 | 53.47970 | -2.34370 | 16466 ft | 386 kts | 80° |
| 2026-05-04 19:43 | 53.48447 | -2.29923 | 17163 ft | 390 kts | 80° |
| 2026-05-04 19:44 | 53.48929 | -2.25413 | 17796 ft | 394 kts | 81° |
| 2026-05-04 19:44 | 53.49414 | -2.20862 | 18478 ft | 397 kts | 81° |
| 2026-05-04 19:44 | 53.49899 | -2.16281 | 19020 ft | 401 kts | 81° |
| 2026-05-04 19:44 | 53.50388 | -2.11661 | 19639 ft | 402 kts | 80° |
| 2026-05-04 19:45 | 53.50875 | -2.07032 | 20273 ft | 403 kts | 80° |
| 2026-05-04 19:45 | 53.51363 | -2.02377 | 20818 ft | 407 kts | 80° |
| 2026-05-04 19:45 | 53.51853 | -1.97683 | 21421 ft | 408 kts | 80° |
| 2026-05-04 19:45 | 53.52333 | -1.92990 | 22003 ft | 410 kts | 82° |
| 2026-05-04 19:46 | 53.52319 | -1.88196 | 22580 ft | 411 kts | 99° |
| 2026-05-04 19:46 | 53.51623 | -1.83525 | 23130 ft | 413 kts | 105° |
| 2026-05-04 19:46 | 53.50854 | -1.78857 | 23675 ft | 415 kts | 105° |
| 2026-05-04 19:46 | 53.50059 | -1.74182 | 24094 ft | 418 kts | 105° |
| 2026-05-04 19:47 | 53.49241 | -1.69476 | 24529 ft | 421 kts | 106° |
| 2026-05-04 19:47 | 53.48409 | -1.64750 | 24969 ft | 423 kts | 106° |
| 2026-05-04 19:47 | 53.47567 | -1.60005 | 25399 ft | 425 kts | 106° |
| 2026-05-04 19:47 | 53.46716 | -1.55240 | 25832 ft | 427 kts | 106° |
| 2026-05-04 19:48 | 53.45859 | -1.50454 | 26242 ft | 430 kts | 106° |
| 2026-05-04 19:48 | 53.44994 | -1.45633 | 26645 ft | 432 kts | 106° |
| 2026-05-04 19:48 | 53.44135 | -1.40860 | 27053 ft | 434 kts | 106° |
| 2026-05-04 19:48 | 53.43260 | -1.36008 | 27456 ft | 436 kts | 106° |
| 2026-05-04 19:49 | 53.42377 | -1.31129 | 27852 ft | 438 kts | 106° |
| 2026-05-04 19:49 | 53.41489 | -1.26226 | 28236 ft | 440 kts | 106° |
| 2026-05-04 19:49 | 53.40597 | -1.21315 | 28612 ft | 442 kts | 106° |
| 2026-05-04 19:49 | 53.39698 | -1.16376 | 28993 ft | 444 kts | 106° |
| 2026-05-04 19:50 | 53.38793 | -1.11424 | 29359 ft | 446 kts | 106° |
| 2026-05-04 19:50 | 53.37883 | -1.06457 | 29724 ft | 448 kts | 106° |
| 2026-05-04 19:50 | 53.36965 | -1.01456 | 30077 ft | 450 kts | 106° |
| 2026-05-04 19:50 | 53.36042 | -0.96443 | 30364 ft | 452 kts | 106° |
| 2026-05-04 19:51 | 53.35114 | -0.91419 | 30729 ft | 452 kts | 106° |
| 2026-05-04 19:51 | 53.34184 | -0.86392 | 31107 ft | 451 kts | 106° |
| 2026-05-04 19:51 | 53.33254 | -0.81386 | 31480 ft | 451 kts | 106° |
| 2026-05-04 19:51 | 53.32323 | -0.76381 | 31852 ft | 450 kts | 106° |
| 2026-05-04 19:52 | 53.31391 | -0.71383 | 32229 ft | 450 kts | 106° |
| 2026-05-04 19:52 | 53.30457 | -0.66395 | 32608 ft | 449 kts | 106° |
| 2026-05-04 19:52 | 53.29522 | -0.61413 | 32977 ft | 449 kts | 106° |
| 2026-05-04 19:52 | 53.28586 | -0.56434 | 33333 ft | 449 kts | 106° |
| 2026-05-04 19:53 | 53.27649 | -0.51469 | 33698 ft | 448 kts | 106° |
| 2026-05-04 19:53 | 53.26711 | -0.46506 | 34049 ft | 448 kts | 106° |
| 2026-05-04 19:53 | 53.25770 | -0.41547 | 34334 ft | 448 kts | 106° |
| 2026-05-04 19:53 | 53.24829 | -0.36592 | 34580 ft | 449 kts | 107° |
| 2026-05-04 19:54 | 53.23880 | -0.31616 | 34794 ft | 451 kts | 107° |
| 2026-05-04 19:54 | 53.22939 | -0.26691 | 35019 ft | 452 kts | 107° |
| 2026-05-04 19:54 | 53.21980 | -0.21689 | 35268 ft | 452 kts | 107° |
| 2026-05-04 19:54 | 53.21021 | -0.16698 | 35523 ft | 453 kts | 108° |
| 2026-05-04 19:55 | 53.20058 | -0.11698 | 35771 ft | 453 kts | 108° |
| 2026-05-04 19:55 | 53.19090 | -0.06683 | 36018 ft | 454 kts | 108° |
| 2026-05-04 19:55 | 53.18120 | -0.01677 | 36259 ft | 454 kts | 108° |
| 2026-05-04 19:55 | 53.17147 | 0.03334 | 36431 ft | 456 kts | 108° |
| 2026-05-04 19:56 | 53.16166 | 0.08378 | 36583 ft | 458 kts | 109° |
| 2026-05-04 19:56 | 53.15180 | 0.13431 | 36804 ft | 459 kts | 108° |
| 2026-05-04 19:56 | 53.14191 | 0.18486 | 37019 ft | 459 kts | 109° |
| 2026-05-04 19:57 | 53.12204 | 0.28601 | 37048 ft | 459 kts | 109° |
| 2026-05-04 19:57 | 53.10215 | 0.38670 | 37057 ft | 458 kts | 109° |
| 2026-05-04 19:58 | 53.08216 | 0.48741 | 37057 ft | 458 kts | 109° |
| 2026-05-04 19:58 | 53.06205 | 0.58817 | 37059 ft | 460 kts | 109° |
| 2026-05-04 19:59 | 53.04180 | 0.68918 | 37055 ft | 461 kts | 109° |
| 2026-05-04 19:59 | 53.02159 | 0.78941 | 37056 ft | 461 kts | 109° |
| 2026-05-04 20:00 | 53.00116 | 0.89021 | 37054 ft | 461 kts | 109° |
| 2026-05-04 20:00 | 52.98075 | 0.99111 | 37058 ft | 462 kts | 107° |
| 2026-05-04 20:01 | 52.96781 | 1.09571 | 37064 ft | 465 kts | 102° |
| 2026-05-04 20:01 | 52.95558 | 1.20098 | 37060 ft | 465 kts | 102° |
| 2026-05-04 20:02 | 52.94332 | 1.30617 | 37056 ft | 465 kts | 102° |
| 2026-05-04 20:02 | 52.93097 | 1.41129 | 37056 ft | 465 kts | 102° |
| 2026-05-04 20:03 | 52.91853 | 1.51639 | 37052 ft | 465 kts | 102° |
| 2026-05-04 20:03 | 52.90597 | 1.62165 | 37059 ft | 467 kts | 102° |
| 2026-05-04 20:04 | 52.89328 | 1.72717 | 37055 ft | 467 kts | 102° |
| 2026-05-04 20:04 | 52.88050 | 1.83254 | 37053 ft | 467 kts | 102° |
| 2026-05-04 20:05 | 52.86763 | 1.93783 | 37053 ft | 467 kts | 103° |
| 2026-05-04 20:05 | 52.85465 | 2.04317 | 37051 ft | 467 kts | 103° |
| 2026-05-04 20:06 | 52.84158 | 2.14853 | 37056 ft | 468 kts | 103° |
| 2026-05-04 20:06 | 52.82839 | 2.25396 | 37050 ft | 468 kts | 103° |
| 2026-05-04 20:07 | 52.81511 | 2.35931 | 37051 ft | 468 kts | 103° |
| 2026-05-04 20:07 | 52.80185 | 2.46398 | 37048 ft | 468 kts | 103° |
| 2026-05-04 20:08 | 52.78836 | 2.56912 | 37045 ft | 468 kts | 104° |
| 2026-05-04 20:08 | 52.77480 | 2.67428 | 37048 ft | 468 kts | 104° |
| 2026-05-04 20:09 | 52.76114 | 2.77946 | 37046 ft | 468 kts | 104° |
| 2026-05-04 20:09 | 52.74738 | 2.88451 | 37048 ft | 468 kts | 104° |
| 2026-05-04 20:10 | 52.73379 | 2.98957 | 37043 ft | 469 kts | 100° |
| 2026-05-04 20:10 | 52.72877 | 3.09704 | 37040 ft | 472 kts | 96° |
| 2026-05-04 20:11 | 52.72421 | 3.20489 | 37041 ft | 471 kts | 96° |
| 2026-05-04 20:11 | 52.71961 | 3.31277 | 37031 ft | 471 kts | 96° |
| 2026-05-04 20:12 | 52.71491 | 3.42061 | 37027 ft | 472 kts | 96° |
| 2026-05-04 20:12 | 52.71011 | 3.52864 | 37024 ft | 472 kts | 96° |
| 2026-05-04 20:13 | 52.70520 | 3.63685 | 37034 ft | 474 kts | 96° |
| 2026-05-04 20:13 | 52.70019 | 3.74518 | 37030 ft | 474 kts | 96° |
| 2026-05-04 20:14 | 52.69507 | 3.85350 | 37031 ft | 474 kts | 96° |
| 2026-05-04 20:14 | 52.68986 | 3.96175 | 37032 ft | 474 kts | 96° |
| 2026-05-04 20:15 | 52.68459 | 4.06932 | 37019 ft | 474 kts | 97° |
| 2026-05-04 20:15 | 52.67917 | 4.17761 | 37027 ft | 474 kts | 97° |
| 2026-05-04 20:16 | 52.67367 | 4.28585 | 37018 ft | 474 kts | 97° |
| 2026-05-04 20:16 | 52.66806 | 4.39403 | 37016 ft | 474 kts | 97° |
| 2026-05-04 20:17 | 52.66236 | 4.50221 | 37016 ft | 474 kts | 97° |
| 2026-05-04 20:17 | 52.65655 | 4.61037 | 37007 ft | 474 kts | 97° |
| 2026-05-04 20:18 | 52.65065 | 4.71846 | 37006 ft | 474 kts | 97° |
| 2026-05-04 20:18 | 52.64465 | 4.82647 | 37007 ft | 474 kts | 97° |
| 2026-05-04 20:19 | 52.63855 | 4.93458 | 37007 ft | 474 kts | 97° |
| 2026-05-04 20:19 | 52.63235 | 5.04256 | 36996 ft | 474 kts | 98° |
| 2026-05-04 20:20 | 52.62607 | 5.15044 | 37003 ft | 474 kts | 98° |
| 2026-05-04 20:20 | 52.61968 | 5.25831 | 36999 ft | 473 kts | 98° |
| 2026-05-04 20:21 | 52.61319 | 5.36611 | 36998 ft | 473 kts | 98° |
| 2026-05-04 20:21 | 52.60332 | 5.52717 | 36985 ft | 474 kts | 98° |
| 2026-05-04 20:22 | 52.59659 | 5.63496 | 37000 ft | 474 kts | 98° |
| 2026-05-04 20:22 | 52.58975 | 5.74290 | 36997 ft | 474 kts | 98° |
| 2026-05-04 20:23 | 52.58282 | 5.85065 | 36994 ft | 474 kts | 98° |
| 2026-05-04 20:23 | 52.57579 | 5.95838 | 36993 ft | 474 kts | 99° |
| 2026-05-04 20:24 | 52.56988 | 6.04787 | 36981 ft | 474 kts | 99° |
| 2026-05-04 20:24 | 52.56267 | 6.15553 | 36987 ft | 473 kts | 99° |
| 2026-05-04 20:25 | 52.55538 | 6.26303 | 36982 ft | 473 kts | 99° |
| 2026-05-04 20:25 | 52.54798 | 6.37049 | 36982 ft | 473 kts | 99° |
| 2026-05-04 20:26 | 52.54050 | 6.47786 | 36982 ft | 473 kts | 99° |
| 2026-05-04 20:26 | 52.53290 | 6.58543 | 36983 ft | 475 kts | 100° |
| 2026-05-04 20:27 | 52.52519 | 6.69307 | 36976 ft | 475 kts | 100° |
| 2026-05-04 20:27 | 52.51739 | 6.80063 | 36974 ft | 474 kts | 100° |
| 2026-05-04 20:28 | 52.50949 | 6.90819 | 36977 ft | 475 kts | 100° |
| 2026-05-04 20:28 | 52.50149 | 7.01572 | 36963 ft | 475 kts | 100° |
| 2026-05-04 20:29 | 52.49337 | 7.12354 | 36981 ft | 477 kts | 100° |
| 2026-05-04 20:29 | 52.48515 | 7.23136 | 36979 ft | 476 kts | 100° |
| 2026-05-04 20:30 | 52.47683 | 7.33918 | 36994 ft | 476 kts | 101° |
| 2026-05-04 20:30 | 52.46841 | 7.44691 | 36976 ft | 476 kts | 101° |
| 2026-05-04 20:31 | 52.45988 | 7.55473 | 36968 ft | 478 kts | 101° |
| 2026-05-04 20:31 | 52.45124 | 7.66281 | 36982 ft | 478 kts | 101° |
| 2026-05-04 20:32 | 52.44249 | 7.77079 | 36972 ft | 478 kts | 101° |
| 2026-05-04 20:32 | 52.43371 | 7.87807 | 36968 ft | 478 kts | 101° |
| 2026-05-04 20:33 | 52.42478 | 7.98594 | 36950 ft | 478 kts | 101° |
| 2026-05-04 20:33 | 52.41571 | 8.09408 | 36982 ft | 480 kts | 101° |
| 2026-05-04 20:34 | 52.40654 | 8.20232 | 36971 ft | 479 kts | 101° |
| 2026-05-04 20:34 | 52.39728 | 8.31042 | 36969 ft | 479 kts | 101° |
| 2026-05-04 20:35 | 52.38791 | 8.41862 | 36968 ft | 479 kts | 101° |
| 2026-05-04 20:35 | 52.37845 | 8.52668 | 36964 ft | 480 kts | 101° |
| 2026-05-04 20:36 | 52.36886 | 8.63494 | 36965 ft | 481 kts | 101° |
| 2026-05-04 20:36 | 52.35918 | 8.74310 | 36965 ft | 481 kts | 101° |
| 2026-05-04 20:37 | 52.34940 | 8.85126 | 36965 ft | 481 kts | 101° |
| 2026-05-04 20:37 | 52.33953 | 8.95933 | 36948 ft | 481 kts | 101° |
| 2026-05-04 20:38 | 52.32960 | 9.06682 | 36968 ft | 482 kts | 101° |
| 2026-05-04 20:38 | 52.31951 | 9.17503 | 36967 ft | 481 kts | 102° |
| 2026-05-04 20:39 | 52.30934 | 9.28312 | 36967 ft | 481 kts | 102° |
| 2026-05-04 20:39 | 52.29910 | 9.39117 | 36971 ft | 481 kts | 102° |
| 2026-05-04 20:40 | 52.28876 | 9.49917 | 36960 ft | 481 kts | 102° |
| 2026-05-04 20:40 | 52.27834 | 9.60694 | 36986 ft | 481 kts | 102° |
| 2026-05-04 20:41 | 52.26782 | 9.71481 | 36985 ft | 481 kts | 102° |
| 2026-05-04 20:41 | 52.25720 | 9.82273 | 36982 ft | 481 kts | 102° |
| 2026-05-04 20:42 | 52.24466 | 9.92981 | 36967 ft | 480 kts | 105° |
| 2026-05-04 20:42 | 52.23100 | 10.03649 | 36972 ft | 481 kts | 104° |
| 2026-05-04 20:43 | 52.21749 | 10.14308 | 36970 ft | 480 kts | 104° |
| 2026-05-04 20:43 | 52.20390 | 10.24972 | 36969 ft | 480 kts | 104° |
| 2026-05-04 20:44 | 52.19030 | 10.35564 | 36986 ft | 480 kts | 105° |
| 2026-05-04 20:44 | 52.17652 | 10.46212 | 36983 ft | 480 kts | 104° |
| 2026-05-04 20:45 | 52.16264 | 10.56857 | 36989 ft | 480 kts | 105° |
| 2026-05-04 20:45 | 52.14867 | 10.67489 | 36982 ft | 480 kts | 105° |
| 2026-05-04 20:46 | 52.13462 | 10.78118 | 36980 ft | 480 kts | 105° |
| 2026-05-04 20:46 | 52.12049 | 10.88739 | 36960 ft | 480 kts | 105° |
| 2026-05-04 20:47 | 52.10629 | 10.99345 | 36973 ft | 480 kts | 105° |
| 2026-05-04 20:47 | 52.09200 | 11.09946 | 36981 ft | 480 kts | 105° |
| 2026-05-04 20:48 | 52.07763 | 11.20528 | 36962 ft | 479 kts | 105° |
| 2026-05-04 20:48 | 52.06316 | 11.31110 | 36968 ft | 479 kts | 105° |
| 2026-05-04 20:49 | 52.04860 | 11.41680 | 36970 ft | 479 kts | 105° |
| 2026-05-04 20:49 | 52.03394 | 11.52246 | 36964 ft | 479 kts | 105° |
| 2026-05-04 20:50 | 52.01919 | 11.62796 | 36965 ft | 479 kts | 105° |
| 2026-05-04 20:50 | 52.00435 | 11.73345 | 36965 ft | 479 kts | 105° |
| 2026-05-04 20:51 | 51.98941 | 11.83889 | 36952 ft | 480 kts | 105° |
| 2026-05-04 20:51 | 51.97453 | 11.94317 | 36965 ft | 481 kts | 105° |
| 2026-05-04 20:52 | 51.95929 | 12.04925 | 36966 ft | 480 kts | 105° |
| 2026-05-04 20:52 | 51.94403 | 12.15471 | 36962 ft | 480 kts | 106° |
| 2026-05-04 20:53 | 51.92868 | 12.26010 | 36961 ft | 480 kts | 106° |
| 2026-05-04 20:53 | 51.91323 | 12.36543 | 36961 ft | 481 kts | 106° |
| 2026-05-04 20:54 | 51.89767 | 12.47082 | 36956 ft | 481 kts | 106° |
| 2026-05-04 20:54 | 51.88201 | 12.57617 | 36953 ft | 481 kts | 106° |
| 2026-05-04 20:55 | 51.86625 | 12.68152 | 36952 ft | 481 kts | 106° |
| 2026-05-04 20:55 | 51.85040 | 12.78672 | 36934 ft | 481 kts | 106° |
| 2026-05-04 20:56 | 51.83449 | 12.89165 | 36943 ft | 480 kts | 106° |
| 2026-05-04 20:56 | 51.81852 | 12.99645 | 36940 ft | 480 kts | 106° |
| 2026-05-04 20:57 | 51.80248 | 13.10115 | 36936 ft | 480 kts | 106° |
| 2026-05-04 20:57 | 51.78293 | 13.20385 | 36955 ft | 478 kts | 111° |
| 2026-05-04 20:58 | 51.76170 | 13.30549 | 36938 ft | 476 kts | 111° |
| 2026-05-04 20:58 | 51.74077 | 13.40692 | 36939 ft | 476 kts | 111° |
| 2026-05-04 20:59 | 51.71993 | 13.50753 | 36946 ft | 476 kts | 111° |
| 2026-05-04 20:59 | 51.69886 | 13.60877 | 36948 ft | 476 kts | 111° |
| 2026-05-04 21:00 | 51.67771 | 13.70989 | 36949 ft | 476 kts | 111° |
| 2026-05-04 21:00 | 51.65648 | 13.81087 | 36957 ft | 476 kts | 111° |
| 2026-05-04 21:01 | 51.63518 | 13.91169 | 36955 ft | 476 kts | 111° |
| 2026-05-04 21:01 | 51.61379 | 14.01241 | 36955 ft | 475 kts | 111° |
| 2026-05-04 21:02 | 51.59232 | 14.11303 | 36953 ft | 475 kts | 111° |
| 2026-05-04 21:02 | 51.57076 | 14.21355 | 36952 ft | 475 kts | 111° |
| 2026-05-04 21:03 | 51.54912 | 14.31394 | 36952 ft | 475 kts | 111° |
| 2026-05-04 21:03 | 51.52741 | 14.41420 | 36954 ft | 475 kts | 112° |
| 2026-05-04 21:04 | 51.50561 | 14.51438 | 36952 ft | 475 kts | 112° |
| 2026-05-04 21:04 | 51.48372 | 14.61447 | 36949 ft | 476 kts | 111° |
| 2026-05-04 21:05 | 51.46187 | 14.71393 | 36953 ft | 475 kts | 112° |
| 2026-05-04 21:05 | 51.43982 | 14.81382 | 36954 ft | 475 kts | 112° |
| 2026-05-04 21:06 | 51.41771 | 14.91363 | 36952 ft | 475 kts | 112° |
| 2026-05-04 21:06 | 51.39340 | 15.01188 | 36956 ft | 474 kts | 115° |
| 2026-05-04 21:07 | 51.36810 | 15.10966 | 36951 ft | 476 kts | 115° |
| 2026-05-04 21:07 | 51.34283 | 15.20752 | 36950 ft | 476 kts | 115° |
| 2026-05-04 21:08 | 51.31750 | 15.30528 | 36948 ft | 476 kts | 115° |
| 2026-05-04 21:08 | 51.29211 | 15.40283 | 36945 ft | 476 kts | 115° |
| 2026-05-04 21:09 | 51.26662 | 15.50037 | 36939 ft | 476 kts | 115° |
| 2026-05-04 21:09 | 51.24103 | 15.59783 | 36945 ft | 476 kts | 115° |
| 2026-05-04 21:10 | 51.21557 | 15.69443 | 36948 ft | 475 kts | 115° |
| 2026-05-04 21:10 | 51.18988 | 15.79148 | 36947 ft | 475 kts | 115° |
| 2026-05-04 21:11 | 51.16436 | 15.88872 | 36930 ft | 475 kts | 114° |
| 2026-05-04 21:11 | 51.13930 | 15.98612 | 36946 ft | 475 kts | 114° |
| 2026-05-04 21:12 | 51.11411 | 16.08340 | 36948 ft | 475 kts | 114° |
| 2026-05-04 21:12 | 51.08883 | 16.18059 | 36940 ft | 475 kts | 114° |
| 2026-05-04 21:13 | 51.06347 | 16.27766 | 36939 ft | 475 kts | 114° |
| 2026-05-04 21:13 | 51.04234 | 16.35826 | 36946 ft | 475 kts | 114° |
| 2026-05-04 21:14 | 51.01684 | 16.45511 | 36952 ft | 475 kts | 114° |
| 2026-05-04 21:14 | 50.99128 | 16.55186 | 36950 ft | 475 kts | 114° |
| 2026-05-04 21:15 | 50.96565 | 16.64854 | 36946 ft | 475 kts | 114° |
| 2026-05-04 21:15 | 50.93995 | 16.74509 | 36940 ft | 475 kts | 114° |
| 2026-05-04 21:16 | 50.91418 | 16.84142 | 36940 ft | 474 kts | 114° |
| 2026-05-04 21:16 | 50.88836 | 16.93759 | 36940 ft | 474 kts | 114° |
| 2026-05-04 21:17 | 50.86264 | 17.03299 | 36938 ft | 474 kts | 114° |
| 2026-05-04 21:17 | 50.83660 | 17.12897 | 36938 ft | 474 kts | 115° |
| 2026-05-04 21:18 | 50.81028 | 17.22453 | 36942 ft | 474 kts | 115° |
| 2026-05-04 21:18 | 50.78394 | 17.31993 | 36935 ft | 473 kts | 115° |
| 2026-05-04 21:19 | 50.77078 | 17.36741 | 36266 ft | 472 kts | 115° |
| 2026-05-04 21:19 | 50.75754 | 17.41513 | 35308 ft | 478 kts | 115° |
| 2026-05-04 21:19 | 50.74412 | 17.46339 | 34473 ft | 480 kts | 115° |
| 2026-05-04 21:19 | 50.73077 | 17.51173 | 33717 ft | 480 kts | 115° |
| 2026-05-04 21:20 | 50.71753 | 17.56015 | 32832 ft | 481 kts | 114° |
| 2026-05-04 21:20 | 50.70425 | 17.60853 | 32068 ft | 480 kts | 114° |
| 2026-05-04 21:20 | 50.69098 | 17.65674 | 31359 ft | 478 kts | 114° |
| 2026-05-04 21:20 | 50.67772 | 17.70479 | 30577 ft | 478 kts | 114° |
| 2026-05-04 21:21 | 50.66440 | 17.75295 | 29640 ft | 481 kts | 114° |
| 2026-05-04 21:21 | 50.65102 | 17.80123 | 28818 ft | 479 kts | 114° |
| 2026-05-04 21:21 | 50.63774 | 17.84907 | 28256 ft | 472 kts | 115° |
| 2026-05-04 21:21 | 50.62462 | 17.89627 | 27631 ft | 468 kts | 115° |
| 2026-05-04 21:22 | 50.61166 | 17.94223 | 27000 ft | 464 kts | 116° |
| 2026-05-04 21:22 | 50.59789 | 17.98805 | 26305 ft | 462 kts | 113° |
| 2026-05-04 21:22 | 50.58933 | 18.03665 | 25591 ft | 462 kts | 98° |
| 2026-05-04 21:22 | 50.58624 | 18.08668 | 25062 ft | 457 kts | 95° |
| 2026-05-04 21:23 | 50.58397 | 18.13626 | 24476 ft | 453 kts | 94° |
| 2026-05-04 21:23 | 50.58211 | 18.18565 | 23875 ft | 451 kts | 94° |
| 2026-05-04 21:23 | 50.58043 | 18.23481 | 23223 ft | 449 kts | 94° |
| 2026-05-04 21:23 | 50.57887 | 18.28371 | 22561 ft | 446 kts | 94° |
| 2026-05-04 21:24 | 50.57736 | 18.33208 | 21969 ft | 441 kts | 94° |
| 2026-05-04 21:24 | 50.57585 | 18.38004 | 21394 ft | 437 kts | 94° |
| 2026-05-04 21:24 | 50.57433 | 18.42755 | 20946 ft | 431 kts | 94° |
| 2026-05-04 21:24 | 50.57264 | 18.47416 | 20675 ft | 426 kts | 94° |
| 2026-05-04 21:25 | 50.57092 | 18.52083 | 20461 ft | 430 kts | 94° |
| 2026-05-04 21:25 | 50.56918 | 18.56779 | 20173 ft | 430 kts | 95° |
| 2026-05-04 21:25 | 50.56744 | 18.61462 | 19872 ft | 426 kts | 95° |
| 2026-05-04 21:25 | 50.56571 | 18.66061 | 19587 ft | 417 kts | 95° |
| 2026-05-04 21:26 | 50.56401 | 18.70561 | 19302 ft | 408 kts | 94° |
| 2026-05-04 21:26 | 50.56405 | 18.74999 | 18981 ft | 402 kts | 90° |
| 2026-05-04 21:26 | 50.56439 | 18.79348 | 18706 ft | 395 kts | 91° |
| 2026-05-04 21:26 | 50.56458 | 18.83626 | 18429 ft | 388 kts | 91° |
| 2026-05-04 21:27 | 50.56469 | 18.87827 | 18143 ft | 381 kts | 91° |
| 2026-05-04 21:27 | 50.56477 | 18.91963 | 17851 ft | 374 kts | 91° |
| 2026-05-04 21:27 | 50.56483 | 18.96018 | 17590 ft | 367 kts | 91° |
| 2026-05-04 21:27 | 50.56487 | 18.99996 | 17338 ft | 360 kts | 91° |
| 2026-05-04 21:28 | 50.56490 | 19.03903 | 17079 ft | 354 kts | 91° |
| 2026-05-04 21:28 | 50.56491 | 19.07739 | 16835 ft | 348 kts | 91° |
| 2026-05-04 21:28 | 50.56491 | 19.11513 | 16576 ft | 342 kts | 92° |
| 2026-05-04 21:28 | 50.56475 | 19.15223 | 16325 ft | 336 kts | 92° |
| 2026-05-04 21:29 | 50.56458 | 19.18877 | 16099 ft | 332 kts | 92° |
| 2026-05-04 21:29 | 50.56441 | 19.22520 | 15866 ft | 333 kts | 92° |
| 2026-05-04 21:29 | 50.56423 | 19.26164 | 15632 ft | 333 kts | 92° |
| 2026-05-04 21:29 | 50.56404 | 19.29805 | 15398 ft | 332 kts | 92° |
| 2026-05-04 21:30 | 50.56383 | 19.33428 | 15161 ft | 331 kts | 92° |
| 2026-05-04 21:30 | 50.56362 | 19.37052 | 14929 ft | 331 kts | 92° |
| 2026-05-04 21:30 | 50.56340 | 19.40615 | 14699 ft | 330 kts | 93° |
| 2026-05-04 21:30 | 50.56316 | 19.44267 | 14459 ft | 330 kts | 93° |
| 2026-05-04 21:31 | 50.56267 | 19.51431 | 13996 ft | 329 kts | 93° |
| 2026-05-04 21:31 | 50.56240 | 19.55018 | 13754 ft | 328 kts | 93° |
| 2026-05-04 21:31 | 50.56212 | 19.58594 | 13496 ft | 326 kts | 94° |
| 2026-05-04 21:32 | 50.55797 | 19.62045 | 13204 ft | 318 kts | 117° |
| 2026-05-04 21:32 | 50.54586 | 19.64843 | 12954 ft | 306 kts | 141° |
| 2026-05-04 21:32 | 50.52869 | 19.66715 | 12787 ft | 300 kts | 155° |
| 2026-05-04 21:32 | 50.51038 | 19.68300 | 12595 ft | 300 kts | 156° |
| 2026-05-04 21:33 | 50.49198 | 19.69831 | 12384 ft | 299 kts | 156° |
| 2026-05-04 21:33 | 50.47354 | 19.71326 | 12172 ft | 298 kts | 157° |
| 2026-05-04 21:33 | 50.45511 | 19.72800 | 11958 ft | 297 kts | 157° |
| 2026-05-04 21:33 | 50.43674 | 19.74254 | 11751 ft | 295 kts | 157° |
| 2026-05-04 21:34 | 50.41839 | 19.75697 | 11541 ft | 294 kts | 157° |
| 2026-05-04 21:34 | 50.40009 | 19.77131 | 11340 ft | 293 kts | 157° |
| 2026-05-04 21:34 | 50.38186 | 19.78556 | 11123 ft | 292 kts | 157° |
| 2026-05-04 21:34 | 50.36370 | 19.79973 | 10917 ft | 291 kts | 157° |
| 2026-05-04 21:35 | 50.34562 | 19.81384 | 10723 ft | 290 kts | 157° |
| 2026-05-04 21:35 | 50.32757 | 19.82790 | 10509 ft | 289 kts | 157° |
| 2026-05-04 21:35 | 50.30966 | 19.84186 | 10310 ft | 286 kts | 157° |
| 2026-05-04 21:35 | 50.29205 | 19.85562 | 10088 ft | 280 kts | 157° |
| 2026-05-04 21:36 | 50.27476 | 19.86911 | 9896 ft | 274 kts | 157° |
| 2026-05-04 21:36 | 50.25776 | 19.88236 | 9710 ft | 273 kts | 157° |
| 2026-05-04 21:36 | 50.24075 | 19.89562 | 9506 ft | 273 kts | 157° |
| 2026-05-04 21:36 | 50.22372 | 19.90887 | 9308 ft | 273 kts | 157° |
| 2026-05-04 21:37 | 50.20788 | 19.92515 | 9083 ft | 277 kts | 137° |
| 2026-05-04 21:37 | 50.19783 | 19.95084 | 8863 ft | 280 kts | 109° |
| 2026-05-04 21:37 | 50.19603 | 19.98029 | 8753 ft | 275 kts | 84° |
| 2026-05-04 21:37 | 50.19957 | 20.00890 | 8742 ft | 262 kts | 80° |
| 2026-05-04 21:38 | 50.20307 | 20.03610 | 8713 ft | 249 kts | 80° |
| 2026-05-04 21:38 | 50.20651 | 20.06239 | 8698 ft | 252 kts | 80° |
| 2026-05-04 21:38 | 50.21016 | 20.08985 | 8669 ft | 262 kts | 80° |
| 2026-05-04 21:38 | 50.21391 | 20.11793 | 8634 ft | 266 kts | 79° |
| 2026-05-04 21:39 | 50.21771 | 20.14631 | 8573 ft | 267 kts | 80° |
| 2026-05-04 21:39 | 50.22151 | 20.17461 | 8522 ft | 266 kts | 80° |
| 2026-05-04 21:39 | 50.22532 | 20.20289 | 8467 ft | 266 kts | 79° |
| 2026-05-04 21:39 | 50.22912 | 20.23110 | 8407 ft | 266 kts | 79° |
| 2026-05-04 21:40 | 50.23273 | 20.25934 | 8343 ft | 265 kts | 85° |
| 2026-05-04 21:40 | 50.23094 | 20.28736 | 8146 ft | 258 kts | 114° |
| 2026-05-04 21:40 | 50.22130 | 20.31025 | 7881 ft | 252 kts | 141° |
| 2026-05-04 21:40 | 50.20655 | 20.32394 | 7577 ft | 246 kts | 165° |
| 2026-05-04 21:41 | 50.18982 | 20.32732 | 7249 ft | 241 kts | 189° |
| 2026-05-04 21:41 | 50.17408 | 20.31948 | 6933 ft | 237 kts | 210° |
| 2026-05-04 21:41 | 50.16104 | 20.30411 | 6641 ft | 235 kts | 228° |
| 2026-05-04 21:41 | 50.15194 | 20.28317 | 6325 ft | 234 kts | 244° |
| 2026-05-04 21:42 | 50.14610 | 20.25972 | 6163 ft | 227 kts | 252° |
| 2026-05-04 21:42 | 50.14177 | 20.23679 | 6145 ft | 212 kts | 254° |
| 2026-05-04 21:42 | 50.13818 | 20.21519 | 5938 ft | 202 kts | 256° |
| 2026-05-04 21:42 | 50.13495 | 20.19406 | 5689 ft | 199 kts | 256° |
| 2026-05-04 21:43 | 50.13189 | 20.17311 | 5446 ft | 197 kts | 256° |
| 2026-05-04 21:43 | 50.12890 | 20.15228 | 5214 ft | 195 kts | 256° |
| 2026-05-04 21:43 | 50.12604 | 20.13205 | 5008 ft | 190 kts | 256° |
| 2026-05-04 21:43 | 50.12322 | 20.11201 | 4756 ft | 188 kts | 256° |
| 2026-05-04 21:44 | 50.12048 | 20.09239 | 4497 ft | 182 kts | 257° |
| 2026-05-04 21:44 | 50.11783 | 20.07337 | 4241 ft | 178 kts | 256° |
| 2026-05-04 21:44 | 50.11525 | 20.05478 | 4019 ft | 174 kts | 255° |
| 2026-05-04 21:44 | 50.11269 | 20.03639 | 3787 ft | 173 kts | 256° |
| 2026-05-04 21:45 | 50.11014 | 20.01811 | 3553 ft | 172 kts | 256° |
| 2026-05-04 21:45 | 50.10766 | 20.00021 | 3340 ft | 167 kts | 256° |
| 2026-05-04 21:45 | 50.10524 | 19.98283 | 3120 ft | 160 kts | 255° |
| 2026-05-04 21:45 | 50.10298 | 19.96649 | 2912 ft | 151 kts | 255° |
| 2026-05-04 21:46 | 50.10075 | 19.95050 | 2722 ft | 151 kts | 255° |
| 2026-05-04 21:46 | 50.09852 | 19.93446 | 2533 ft | 152 kts | 256° |
| 2026-05-04 21:46 | 50.09634 | 19.91870 | 2334 ft | 147 kts | 256° |
| 2026-05-04 21:46 | 50.09421 | 19.90341 | 2151 ft | 143 kts | 256° |
| 2026-05-04 21:47 | 50.09210 | 19.88823 | 1947 ft | 145 kts | 256° |
| 2026-05-04 21:47 | 50.08998 | 19.87278 | 1745 ft | 147 kts | 257° |
| 2026-05-04 21:47 | 50.08785 | 19.85710 | 1532 ft | 149 kts | 256° |
| 2026-05-04 21:47 | 50.08573 | 19.84133 | 1329 ft | 149 kts | 257° |
| 2026-05-04 21:48 | 50.08338 | 19.82572 | 1152 ft | 146 kts | 257° |
| 2026-05-04 21:48 | 50.08128 | 19.81056 | 971 ft | 142 kts | 258° |
| 2026-05-04 21:48 | 50.07925 | 19.79562 | 807 ft | 137 kts | 257° |
| 2026-05-04 21:48 | 50.07759 | 19.78368 | 793 ft | 80 kts | 258° |
| 2026-05-04 21:49 | 50.07652 | 19.77601 | 792 ft | 70 kts | 258° |
| 2026-05-04 21:49 | 50.07572 | 19.77032 | 797 ft | 32 kts | 257° |
| 2026-05-04 21:49 | 50.07511 | 19.76851 | 799 ft | 16 kts | 195° |
| 2026-05-04 21:49 | 50.07387 | 19.76883 | 792 ft | 17 kts | 167° |
| 2026-05-04 21:50 | 50.07309 | 19.76956 | 792 ft | 14 kts | 93° |
| 2026-05-04 21:50 | 50.07329 | 19.77116 | 792 ft | 16 kts | 78° |
| 2026-05-04 21:50 | 50.07355 | 19.77300 | 792 ft | 19 kts | 77° |
| 2026-05-04 21:50 | 50.07384 | 19.77508 | 792 ft | 21 kts | 78° |
| 2026-05-04 21:51 | 50.07414 | 19.77724 | 792 ft | 21 kts | 77° |
| 2026-05-04 21:51 | 50.07446 | 19.77956 | 792 ft | 20 kts | 78° |
| 2026-05-04 21:51 | 50.07474 | 19.78155 | 792 ft | 20 kts | 78° |
| 2026-05-04 21:51 | 50.07504 | 19.78374 | 792 ft | 20 kts | 77° |
| 2026-05-04 21:52 | 50.07535 | 19.78595 | 792 ft | 19 kts | 77° |
| 2026-05-04 21:52 | 50.07565 | 19.78805 | 792 ft | 21 kts | 78° |
| 2026-05-04 21:52 | 50.07594 | 19.79017 | 792 ft | 20 kts | 78° |
| 2026-05-04 21:52 | 50.07624 | 19.79230 | 792 ft | 20 kts | 77° |
| 2026-05-04 21:53 | 50.07653 | 19.79439 | 791 ft | 17 kts | 78° |
| 2026-05-04 21:53 | 50.07678 | 19.79621 | 791 ft | 17 kts | 77° |
| 2026-05-04 21:53 | 50.07700 | 19.79776 | 791 ft | 15 kts | 78° |
| 2026-05-04 21:53 | 50.07682 | 19.79871 | 791 ft | 10 kts | 150° |
| 2026-05-04 21:54 | 50.07609 | 19.79900 | 792 ft | 12 kts | 167° |
| 2026-05-04 21:54 | 50.07525 | 19.79929 | 792 ft | 10 kts | 168° |
| 2026-05-04 21:54 | 50.07451 | 19.79954 | 792 ft | 11 kts | 168° |
| 2026-05-04 21:54 | 50.07393 | 19.79931 | 792 ft | 4 kts | 230° |
| 2026-05-04 21:55 | 50.07364 | 19.79908 | 792 ft | 5 kts | 184° |
| 2026-05-04 21:55 | 50.07335 | 19.79914 | 792 ft | 2 kts | 168° |
| 2026-05-04 21:55 | 50.07324 | 19.79917 | 792 ft | 1 kts | 168° |
| 2026-05-04 21:55 | 50.07318 | 19.79919 | 792 ft | 1 kts | 167° |
| 2026-05-04 21:56 | 50.07317 | 19.79920 | 792 ft | 0 kts | 167° |